Time;durP1;ratioP1;P1;durP2;ratioP2;P2;SDS_P1;SDS_P2;PMS_P1;PMS_P2;Temp;Humidity;BMP_temperature;BMP_pressure;BME280_temperature;BME280_humidity;BME280_pressure;Samples;Min_cycle;Max_cycle;Signal;HPM_P1;HPM_P2
2022/06/09 00:01:53;;;;;;;5.40;3.80;;;;;;;;;;4934645;29;20095;-60
2022/06/09 00:04:26;;;;;;;6.25;4.10;;;;;;;;;;4934778;29;20023;-60
2022/06/09 00:06:57;;;;;;;6.53;3.80;;;;;;;;;;4934575;29;20526;-60
2022/06/09 00:09:27;;;;;;;7.32;3.92;;;;;;;;;;4934541;29;20038;-60
2022/06/09 00:11:54;;;;;;;7.97;3.70;;;;;;;;;;4934495;29;20048;-60
2022/06/09 00:14:20;;;;;;;4.78;3.35;;;;;;;;;;4934712;29;20031;-60
2022/06/09 00:16:47;;;;;;;4.38;3.47;;;;;;;;;;4934324;29;20028;-60
2022/06/09 00:19:13;;;;;;;5.18;3.67;;;;;;;;;;4934407;29;20087;-59
2022/06/09 00:21:39;;;;;;;5.32;3.80;;;;;;;;;;4934418;29;20046;-60
2022/06/09 00:24:06;;;;;;;6.72;3.83;;;;;;;;;;4934080;29;20057;-59
2022/06/09 00:26:32;;;;;;;5.45;3.85;;;;;;;;;;4934285;29;20047;-60
2022/06/09 00:28:58;;;;;;;5.50;3.97;;;;;;;;;;4934392;29;20047;-59
2022/06/09 00:31:24;;;;;;;5.40;3.72;;;;;;;;;;4934442;29;20024;-60
2022/06/09 00:33:50;;;;;;;4.70;3.72;;;;;;;;;;4934283;29;20040;-61
2022/06/09 00:36:17;;;;;;;5.22;4.15;;;;;;;;;;4934158;29;20024;-60
2022/06/09 00:38:43;;;;;;;6.47;4.15;;;;;;;;;;4933945;29;20035;-60
2022/06/09 00:41:09;;;;;;;5.70;4.15;;;;;;;;;;4933912;29;20026;-59
2022/06/09 00:43:36;;;;;;;6.10;4.50;;;;;;;;;;4934305;29;20028;-61
2022/06/09 00:46:17;;;;;;;6.15;4.22;;;;;;;;;;4934354;29;20030;-60
2022/06/09 00:48:57;;;;;;;7.05;4.78;;;;;;;;;;4934166;29;20035;-59
2022/06/09 00:51:38;;;;;;;5.15;4.20;;;;;;;;;;4933958;29;20123;-59
2022/06/09 00:54:24;;;;;;;7.03;5.00;;;;;;;;;;4933972;29;20110;-60
2022/06/09 00:56:53;;;;;;;5.68;4.70;;;;;;;;;;4934387;29;20408;-60
2022/06/09 00:59:20;;;;;;;7.35;4.93;;;;;;;;;;4934387;29;20107;-59
2022/06/09 01:01:46;;;;;;;7.07;5.40;;;;;;;;;;4933926;29;20075;-60
2022/06/09 01:04:13;;;;;;;5.95;4.95;;;;;;;;;;4934264;29;20023;-60
2022/06/09 01:06:41;;;;;;;10.40;4.95;;;;;;;;;;4934120;29;20035;-60
2022/06/09 01:09:10;;;;;;;8.10;4.88;;;;;;;;;;4934073;29;20068;-60
2022/06/09 01:11:36;;;;;;;6.55;5.35;;;;;;;;;;4934262;29;20054;-59
2022/06/09 01:14:03;;;;;;;7.28;4.82;;;;;;;;;;4933953;29;20028;-60
2022/06/09 01:16:35;;;;;;;7.40;4.55;;;;;;;;;;4934175;29;20019;-59
2022/06/09 01:19:07;;;;;;;6.43;4.65;;;;;;;;;;4933936;29;20043;-60
2022/06/09 01:21:42;;;;;;;8.45;5.53;;;;;;;;;;4934150;29;20440;-60
2022/06/09 01:24:11;;;;;;;8.45;5.22;;;;;;;;;;4933486;29;20443;-60
2022/06/09 01:26:47;;;;;;;6.65;5.35;;;;;;;;;;4933997;29;20032;-60
2022/06/09 01:29:16;;;;;;;7.80;5.40;;;;;;;;;;4933739;29;20058;-62
2022/06/09 01:31:42;;;;;;;8.98;5.72;;;;;;;;;;4933846;29;20091;-60
2022/06/09 01:34:27;;;;;;;6.93;5.72;;;;;;;;;;4933724;29;20118;-60
2022/06/09 01:37:05;;;;;;;7.30;5.65;;;;;;;;;;4933714;29;20032;-60
2022/06/09 01:39:42;;;;;;;9.80;5.50;;;;;;;;;;4933628;29;20084;-60
2022/06/09 01:42:29;;;;;;;7.70;5.40;;;;;;;;;;4933497;29;20043;-60
2022/06/09 01:45:15;;;;;;;7.97;5.57;;;;;;;;;;4837940;29;20054;-59
2022/06/09 01:47:47;;;;;;;7.82;5.07;;;;;;;;;;4801411;29;20039;-62
2022/06/09 01:50:20;;;;;;;7.13;5.60;;;;;;;;;;4801553;29;20047;-61
2022/06/09 01:52:46;;;;;;;9.07;5.85;;;;;;;;;;4804795;29;20051;-59
2022/06/09 01:55:16;;;;;;;10.68;6.05;;;;;;;;;;4804515;29;20118;-60
2022/06/09 01:57:43;;;;;;;8.63;5.97;;;;;;;;;;4804587;29;20042;-59
2022/06/09 02:00:13;;;;;;;7.78;5.82;;;;;;;;;;4804976;29;20047;-60
2022/06/09 02:02:58;;;;;;;9.38;5.80;;;;;;;;;;4806203;29;20047;-60
2022/06/09 02:05:26;;;;;;;7.80;5.63;;;;;;;;;;4805615;29;20527;-60
2022/06/09 02:07:55;;;;;;;8.00;5.63;;;;;;;;;;4804955;29;20035;-59
2022/06/09 02:10:29;;;;;;;8.43;6.05;;;;;;;;;;4804829;29;20053;-60
2022/06/09 02:12:56;;;;;;;9.30;5.60;;;;;;;;;;4804634;29;20035;-60
2022/06/09 02:15:24;;;;;;;8.27;6.38;;;;;;;;;;4804766;29;20407;-60
2022/06/09 02:17:50;;;;;;;7.18;5.82;;;;;;;;;;4804367;29;20035;-61
2022/06/09 02:20:18;;;;;;;8.85;5.47;;;;;;;;;;4804748;29;20084;-60
2022/06/09 02:22:44;;;;;;;8.23;5.47;;;;;;;;;;4878867;29;20100;-60
2022/06/09 02:25:11;;;;;;;10.82;6.13;;;;;;;;;;4923425;29;20184;-60
2022/06/09 02:27:37;;;;;;;7.30;5.88;;;;;;;;;;4936769;29;20053;-60
2022/06/09 02:30:04;;;;;;;7.72;5.63;;;;;;;;;;4936723;29;20476;-60
2022/06/09 02:32:32;;;;;;;7.47;5.70;;;;;;;;;;4936564;29;20152;-59
2022/06/09 02:34:58;;;;;;;8.20;5.65;;;;;;;;;;4936498;29;20020;-60
2022/06/09 02:37:24;;;;;;;8.07;5.90;;;;;;;;;;4936548;29;20031;-60
2022/06/09 02:39:50;;;;;;;8.80;6.18;;;;;;;;;;4936444;29;20028;-60
2022/06/09 02:42:16;;;;;;;8.30;6.07;;;;;;;;;;4936284;29;20531;-60
2022/06/09 02:44:42;;;;;;;13.55;6.70;;;;;;;;;;4936496;29;20373;-59
2022/06/09 02:47:09;;;;;;;10.15;6.45;;;;;;;;;;4936277;29;20031;-60
2022/06/09 02:49:35;;;;;;;8.43;6.03;;;;;;;;;;4935948;29;20042;-60
2022/06/09 02:52:01;;;;;;;7.18;5.55;;;;;;;;;;4936020;29;20036;-60
2022/06/09 02:54:27;;;;;;;8.82;6.45;;;;;;;;;;4935701;29;20039;-60
2022/06/09 02:56:53;;;;;;;8.40;6.40;;;;;;;;;;4935811;29;20042;-59
2022/06/09 02:59:19;;;;;;;9.05;6.75;;;;;;;;;;4936159;29;20034;-59
2022/06/09 03:01:46;;;;;;;8.27;7.03;;;;;;;;;;4935595;29;20059;-60
2022/06/09 03:04:12;;;;;;;10.15;6.45;;;;;;;;;;4935274;29;20439;-60
2022/06/09 03:06:38;;;;;;;7.53;6.05;;;;;;;;;;4935832;29;20076;-59
2022/06/09 03:09:04;;;;;;;9.68;6.50;;;;;;;;;;4935897;29;20083;-59
2022/06/09 03:11:30;;;;;;;7.63;6.57;;;;;;;;;;4935840;29;20088;-59
2022/06/09 03:13:56;;;;;;;8.32;6.13;;;;;;;;;;4935857;29;20023;-60
2022/06/09 03:16:22;;;;;;;8.52;6.15;;;;;;;;;;4935722;29;20038;-60
2022/06/09 03:18:48;;;;;;;9.85;6.53;;;;;;;;;;4935621;29;20038;-60
2022/06/09 03:21:15;;;;;;;10.20;7.07;;;;;;;;;;4935395;29;20035;-60
2022/06/09 03:23:41;;;;;;;9.07;6.43;;;;;;;;;;4935720;29;20395;-60
2022/06/09 03:26:07;;;;;;;8.77;7.00;;;;;;;;;;4935378;29;20123;-60
2022/06/09 03:28:34;;;;;;;9.55;6.50;;;;;;;;;;4935658;29;20055;-60
2022/06/09 03:31:00;;;;;;;9.23;6.60;;;;;;;;;;4935513;29;20027;-60
2022/06/09 03:33:26;;;;;;;9.27;6.85;;;;;;;;;;4935324;29;20028;-60
2022/06/09 03:35:52;;;;;;;7.28;6.00;;;;;;;;;;4935395;29;20494;-60
2022/06/09 03:38:18;;;;;;;9.10;6.15;;;;;;;;;;4935425;29;20565;-60
2022/06/09 03:40:44;;;;;;;8.00;5.38;;;;;;;;;;4935425;29;20024;-61
2022/06/09 03:43:10;;;;;;;7.43;5.60;;;;;;;;;;4935017;29;20135;-60
2022/06/09 03:45:37;;;;;;;8.68;5.82;;;;;;;;;;4935381;29;20056;-60
2022/06/09 03:48:05;;;;;;;10.27;5.90;;;;;;;;;;4935101;29;20662;-60
2022/06/09 03:50:32;;;;;;;8.40;5.85;;;;;;;;;;4935319;29;20020;-60
2022/06/09 03:52:59;;;;;;;8.35;5.85;;;;;;;;;;4932997;29;20028;-60
2022/06/09 03:55:25;;;;;;;10.35;5.85;;;;;;;;;;4935173;29;20032;-60
2022/06/09 03:57:51;;;;;;;9.85;6.13;;;;;;;;;;4934982;29;20031;-62
2022/06/09 04:00:19;;;;;;;8.88;6.10;;;;;;;;;;4935164;29;20107;-60
2022/06/09 04:02:45;;;;;;;10.02;5.68;;;;;;;;;;4934857;29;20477;-60
2022/06/09 04:05:13;;;;;;;8.15;5.43;;;;;;;;;;4934663;29;20468;-61
2022/06/09 04:07:40;;;;;;;7.25;5.38;;;;;;;;;;4934759;29;20027;-60
2022/06/09 04:10:06;;;;;;;9.85;5.68;;;;;;;;;;4934597;29;20035;-60
2022/06/09 04:12:34;;;;;;;7.63;5.70;;;;;;;;;;4934645;29;20043;-60
2022/06/09 04:15:00;;;;;;;8.40;6.07;;;;;;;;;;4934779;29;20119;-60
2022/06/09 04:17:26;;;;;;;8.88;6.28;;;;;;;;;;4934651;29;20138;-60
2022/06/09 04:19:52;;;;;;;12.77;6.90;;;;;;;;;;4934628;29;20812;-60
2022/06/09 04:22:18;;;;;;;9.13;7.18;;;;;;;;;;4934352;29;20050;-60
2022/06/09 04:24:44;;;;;;;10.48;6.53;;;;;;;;;;4934152;29;20043;-60
2022/06/09 04:27:10;;;;;;;10.23;5.82;;;;;;;;;;4933926;29;20034;-61
2022/06/09 04:29:36;;;;;;;9.95;5.93;;;;;;;;;;4934311;29;20078;-60
2022/06/09 04:32:03;;;;;;;7.93;5.68;;;;;;;;;;4934419;29;20035;-60
2022/06/09 04:34:29;;;;;;;6.93;5.03;;;;;;;;;;4934095;29;20087;-61
2022/06/09 04:36:55;;;;;;;8.43;5.18;;;;;;;;;;4934279;29;20503;-61
2022/06/09 04:39:21;;;;;;;7.53;5.18;;;;;;;;;;4934460;29;20024;-60
2022/06/09 04:41:47;;;;;;;8.05;6.15;;;;;;;;;;4934144;29;20079;-61
2022/06/09 04:44:15;;;;;;;8.38;5.25;;;;;;;;;;4933963;29;20522;-60
2022/06/09 04:46:41;;;;;;;7.80;4.57;;;;;;;;;;4934282;29;20468;-60
2022/06/09 04:49:07;;;;;;;5.93;4.68;;;;;;;;;;4933986;29;20052;-60
2022/06/09 04:51:33;;;;;;;7.55;4.57;;;;;;;;;;4934215;29;20478;-60
2022/06/09 04:53:59;;;;;;;6.75;4.20;;;;;;;;;;4934136;29;20028;-60
2022/06/09 04:56:25;;;;;;;8.57;4.88;;;;;;;;;;4934059;29;20035;-59
2022/06/09 04:58:52;;;;;;;8.57;4.68;;;;;;;;;;4934228;29;20032;-60
2022/06/09 05:01:18;;;;;;;7.72;4.38;;;;;;;;;;4934016;29;20035;-60
2022/06/09 05:03:45;;;;;;;6.78;4.40;;;;;;;;;;4933827;29;20036;-59
2022/06/09 05:06:11;;;;;;;5.65;4.13;;;;;;;;;;4934035;29;20028;-60
2022/06/09 05:08:38;;;;;;;5.78;4.75;;;;;;;;;;4934134;29;20036;-60
2022/06/09 05:11:05;;;;;;;5.18;3.95;;;;;;;;;;4934094;29;20095;-59
2022/06/09 05:13:31;;;;;;;7.63;4.32;;;;;;;;;;4933867;29;20039;-61
2022/06/09 05:15:57;;;;;;;6.55;4.43;;;;;;;;;;4933958;29;20024;-59
2022/06/09 05:18:24;;;;;;;7.00;4.05;;;;;;;;;;4933963;29;20042;-60
2022/06/09 05:20:51;;;;;;;6.40;4.47;;;;;;;;;;4934013;29;20055;-60
2022/06/09 05:23:18;;;;;;;5.50;4.25;;;;;;;;;;4933932;29;20032;-60
2022/06/09 05:25:44;;;;;;;6.22;4.28;;;;;;;;;;4934790;29;20159;-60
2022/06/09 05:28:10;;;;;;;7.25;4.10;;;;;;;;;;4937630;29;20059;-65
2022/06/09 05:30:37;;;;;;;4.68;4.05;;;;;;;;;;4937596;29;20103;-63
2022/06/09 05:33:03;;;;;;;6.57;3.80;;;;;;;;;;4937663;29;20028;-64
2022/06/09 05:35:29;;;;;;;5.78;4.00;;;;;;;;;;4937292;29;20027;-60
2022/06/09 05:46:29;;;;;;;6.75;4.05;;;;;;;;;;4878195;29;20169;-63
2022/06/09 05:48:55;;;;;;;10.20;3.92;;;;;;;;;;4878250;29;20128;-60
2022/06/09 05:51:21;;;;;;;7.63;4.18;;;;;;;;;;4871236;29;20064;-59
2022/06/09 05:53:47;;;;;;;8.95;4.25;;;;;;;;;;4859091;29;20042;-63
2022/06/09 05:56:13;;;;;;;7.55;4.60;;;;;;;;;;4859421;29;20045;-61
2022/06/09 05:58:39;;;;;;;7.47;4.03;;;;;;;;;;4859652;29;20050;-59
2022/06/09 06:01:07;;;;;;;5.82;4.15;;;;;;;;;;4859596;29;20068;-59
2022/06/09 06:03:33;;;;;;;5.38;4.20;;;;;;;;;;4859565;29;20136;-59
2022/06/09 06:08:44;;;;;;;7.45;4.18;;;;;;;;;;4859647;29;20450;-59
2022/06/09 06:11:11;;;;;;;6.78;4.25;;;;;;;;;;4859427;29;20494;-60
2022/06/09 06:13:37;;;;;;;5.43;3.47;;;;;;;;;;4859109;29;20113;-59
2022/06/09 06:16:03;;;;;;;6.47;4.32;;;;;;;;;;4860127;29;20350;-60
2022/06/09 06:18:30;;;;;;;6.13;3.58;;;;;;;;;;4918052;29;20520;-57
2022/06/09 06:20:56;;;;;;;7.43;3.40;;;;;;;;;;4917716;29;20143;-58
2022/06/09 06:23:23;;;;;;;6.55;3.60;;;;;;;;;;4917178;29;20048;-62
2022/06/09 06:25:49;;;;;;;4.60;3.15;;;;;;;;;;4917665;29;20376;-57
2022/06/09 06:28:15;;;;;;;6.32;3.55;;;;;;;;;;4927224;29;20091;-57
2022/06/09 06:30:41;;;;;;;6.60;3.20;;;;;;;;;;4936639;29;20039;-57
2022/06/09 06:33:07;;;;;;;5.10;3.28;;;;;;;;;;4936678;29;20035;-62
2022/06/09 06:35:33;;;;;;;5.07;3.75;;;;;;;;;;4936515;29;20032;-62
2022/06/09 06:38:00;;;;;;;4.78;3.00;;;;;;;;;;4935319;29;20098;-62
2022/06/09 06:40:26;;;;;;;5.43;3.50;;;;;;;;;;4936407;29;20035;-57
2022/06/09 06:42:52;;;;;;;6.82;3.22;;;;;;;;;;4936355;29;20468;-57
2022/06/09 06:45:19;;;;;;;5.82;3.33;;;;;;;;;;4936746;29;20110;-57
2022/06/09 06:47:45;;;;;;;6.38;3.40;;;;;;;;;;4936173;29;20039;-57
2022/06/09 06:50:12;;;;;;;5.93;3.20;;;;;;;;;;4936266;29;20396;-57
2022/06/09 06:52:38;;;;;;;5.13;3.10;;;;;;;;;;4936183;29;20164;-57
2022/06/09 06:55:05;;;;;;;4.95;3.13;;;;;;;;;;4936397;29;20032;-61
2022/06/09 06:57:31;;;;;;;4.13;2.92;;;;;;;;;;4936092;29;20114;-62
2022/06/09 06:59:58;;;;;;;6.47;2.95;;;;;;;;;;4936409;29;20042;-58
2022/06/09 07:02:24;;;;;;;4.80;3.20;;;;;;;;;;4935724;29;20494;-60
2022/06/09 07:04:50;;;;;;;5.45;3.58;;;;;;;;;;4935896;29;20110;-58
2022/06/09 07:07:16;;;;;;;6.60;3.92;;;;;;;;;;4935711;29;20077;-62
2022/06/09 07:09:42;;;;;;;6.97;2.83;;;;;;;;;;4935667;29;20040;-57
2022/06/09 07:12:10;;;;;;;6.38;3.17;;;;;;;;;;4935705;29;20028;-57
2022/06/09 07:14:36;;;;;;;5.55;2.95;;;;;;;;;;4935597;29;20159;-57
2022/06/09 07:17:02;;;;;;;4.68;3.03;;;;;;;;;;4935613;29;20484;-57
2022/06/09 07:19:29;;;;;;;5.20;2.58;;;;;;;;;;4935506;29;20035;-57
2022/06/09 07:21:55;;;;;;;4.20;2.70;;;;;;;;;;4935395;29;20417;-59
2022/06/09 07:24:21;;;;;;;3.80;2.47;;;;;;;;;;4935191;29;20031;-58
2022/06/09 07:26:47;;;;;;;4.40;2.70;;;;;;;;;;4935420;29;20047;-57
2022/06/09 07:29:13;;;;;;;4.03;2.75;;;;;;;;;;4935534;29;20051;-57
2022/06/09 07:31:39;;;;;;;5.20;3.10;;;;;;;;;;4935896;29;20377;-58
2022/06/09 07:34:06;;;;;;;3.45;2.45;;;;;;;;;;4935847;29;20027;-57
2022/06/09 07:36:32;;;;;;;3.90;2.97;;;;;;;;;;4935437;29;20059;-60
2022/06/09 07:38:58;;;;;;;4.80;2.75;;;;;;;;;;4935581;29;20079;-62
2022/06/09 07:41:24;;;;;;;5.43;2.90;;;;;;;;;;4935265;29;20046;-60
2022/06/09 07:43:50;;;;;;;5.05;3.28;;;;;;;;;;4935103;29;20027;-62
2022/06/09 07:46:17;;;;;;;5.72;2.80;;;;;;;;;;4935188;29;20480;-57
2022/06/09 07:48:45;;;;;;;5.63;2.67;;;;;;;;;;4934850;29;20040;-57
2022/06/09 07:51:11;;;;;;;8.15;3.30;;;;;;;;;;4935188;29;20447;-57
2022/06/09 07:53:37;;;;;;;4.68;3.00;;;;;;;;;;4935097;29;20031;-57
2022/06/09 07:56:03;;;;;;;5.95;3.10;;;;;;;;;;4935129;29;20115;-61
2022/06/09 07:58:30;;;;;;;4.72;2.83;;;;;;;;;;4934990;29;20115;-57
2022/06/09 08:00:56;;;;;;;7.60;3.47;;;;;;;;;;4934770;29;20327;-58
2022/06/09 08:03:23;;;;;;;4.90;2.70;;;;;;;;;;4934768;29;20044;-57
2022/06/09 08:05:50;;;;;;;4.43;2.75;;;;;;;;;;4934365;29;20472;-61
2022/06/09 08:08:16;;;;;;;9.88;3.45;;;;;;;;;;4934789;29;20091;-58
2022/06/09 08:10:42;;;;;;;4.40;2.80;;;;;;;;;;4934932;29;20028;-57
2022/06/09 08:13:09;;;;;;;4.63;2.47;;;;;;;;;;4934760;29;20035;-57
2022/06/09 08:15:35;;;;;;;8.43;2.70;;;;;;;;;;4934662;29;20145;-58
2022/06/09 08:18:01;;;;;;;4.93;2.58;;;;;;;;;;4934677;29;20484;-57
2022/06/09 08:20:29;;;;;;;6.65;3.13;;;;;;;;;;4934392;29;20027;-62
2022/06/09 08:23:02;;;;;;;2.97;2.55;;;;;;;;;;4934350;29;20035;-59
2022/06/09 08:25:28;;;;;;;4.32;2.55;;;;;;;;;;4934096;29;20026;-58
2022/06/09 08:27:54;;;;;;;5.05;2.63;;;;;;;;;;4933958;29;20060;-61
2022/06/09 08:30:20;;;;;;;4.60;2.42;;;;;;;;;;4934044;29;20031;-57
2022/06/09 08:32:46;;;;;;;4.60;2.42;;;;;;;;;;4934091;29;20034;-57
2022/06/09 08:35:16;;;;;;;4.15;2.72;;;;;;;;;;4933818;29;20032;-58
2022/06/09 08:37:42;;;;;;;6.55;2.85;;;;;;;;;;4934042;29;20069;-57
2022/06/09 08:40:11;;;;;;;5.20;2.63;;;;;;;;;;4934073;29;20024;-58
2022/06/09 08:42:37;;;;;;;6.03;3.00;;;;;;;;;;4934379;29;20036;-57
2022/06/09 08:45:11;;;;;;;7.25;3.10;;;;;;;;;;4934357;29;20027;-57
2022/06/09 08:47:40;;;;;;;9.73;3.85;;;;;;;;;;4933536;29;20032;-57
2022/06/09 08:50:21;;;;;;;8.77;2.80;;;;;;;;;;4933532;29;20034;-58
2022/06/09 08:52:57;;;;;;;5.97;2.63;;;;;;;;;;4933622;29;20031;-57
2022/06/09 08:55:38;;;;;;;4.22;2.40;;;;;;;;;;4933881;29;20348;-57
2022/06/09 08:58:04;;;;;;;3.92;2.40;;;;;;;;;;4934014;29;20510;-57
2022/06/09 09:00:34;;;;;;;3.88;2.20;;;;;;;;;;4933581;29;20091;-57
2022/06/09 09:03:03;;;;;;;2.60;2.20;;;;;;;;;;4934097;29;20399;-57
2022/06/09 09:05:44;;;;;;;3.92;2.40;;;;;;;;;;4933713;29;20031;-61
2022/06/09 09:08:12;;;;;;;4.20;2.47;;;;;;;;;;4933921;29;20092;-59
2022/06/09 09:11:02;;;;;;;2.80;2.00;;;;;;;;;;4934070;29;20024;-58
2022/06/09 09:13:38;;;;;;;3.72;1.92;;;;;;;;;;4916182;29;20055;-59
2022/06/09 09:16:14;;;;;;;4.07;2.13;;;;;;;;;;4933651;29;20031;-57
2022/06/09 09:18:40;;;;;;;4.20;2.70;;;;;;;;;;4934017;29;20495;-62
2022/06/09 09:21:12;;;;;;;6.32;2.55;;;;;;;;;;4933914;29;20062;-58
2022/06/09 09:23:59;;;;;;;16.13;5.00;;;;;;;;;;4933868;29;20513;-57
2022/06/09 09:26:45;;;;;;;4.80;2.08;;;;;;;;;;4933697;29;20035;-58
2022/06/09 09:29:25;;;;;;;6.32;2.80;;;;;;;;;;4933356;29;20066;-57
2022/06/09 09:31:54;;;;;;;5.60;2.55;;;;;;;;;;4933686;29;20388;-57
2022/06/09 09:34:23;;;;;;;3.75;2.55;;;;;;;;;;4933930;29;20370;-61
2022/06/09 09:36:51;;;;;;;4.05;2.70;;;;;;;;;;4933264;29;20042;-57
2022/06/09 09:39:20;;;;;;;4.00;2.95;;;;;;;;;;4933696;29;20034;-57
2022/06/09 09:41:46;;;;;;;3.70;2.30;;;;;;;;;;4933570;29;20039;-57
2022/06/09 09:44:20;;;;;;;4.47;2.47;;;;;;;;;;4933449;29;20024;-57
2022/06/09 09:46:51;;;;;;;8.52;5.88;;;;;;;;;;4933187;29;20088;-57
2022/06/09 09:49:23;;;;;;;7.50;4.05;;;;;;;;;;4933135;29;20034;-57
2022/06/09 09:51:49;;;;;;;5.20;2.90;;;;;;;;;;4933613;29;20115;-59
2022/06/09 09:54:20;;;;;;;5.68;2.92;;;;;;;;;;4933340;29;20031;-58
2022/06/09 09:56:47;;;;;;;5.68;2.88;;;;;;;;;;4933496;29;20036;-57
2022/06/09 09:59:18;;;;;;;6.40;2.88;;;;;;;;;;4933458;29;20036;-57
2022/06/09 10:09:59;;;;;;;4.15;2.55;;;;;;;;;;4932987;29;20038;-58
2022/06/09 10:12:33;;;;;;;6.55;2.72;;;;;;;;;;4934763;29;20429;-58
2022/06/09 10:15:02;;;;;;;5.90;2.70;;;;;;;;;;4936258;29;20035;-58
2022/06/09 10:17:37;;;;;;;5.20;2.45;;;;;;;;;;4936517;29;20038;-58
2022/06/09 10:20:06;;;;;;;5.40;2.30;;;;;;;;;;4936687;29;20091;-57
2022/06/09 10:22:34;;;;;;;7.75;2.47;;;;;;;;;;4936529;29;20087;-57
2022/06/09 10:25:03;;;;;;;3.72;2.55;;;;;;;;;;4936179;29;20058;-60
2022/06/09 10:27:38;;;;;;;6.40;2.80;;;;;;;;;;4936084;29;20047;-57
2022/06/09 10:30:43;;;;;;;4.00;2.40;;;;;;;;;;4936515;29;20028;-62
2022/06/09 10:33:21;;;;;;;4.05;2.58;;;;;;;;;;4877570;29;20576;-60
2022/06/09 10:35:50;;;;;;;6.97;2.70;;;;;;;;;;4877260;29;20033;-58
2022/06/09 10:38:21;;;;;;;5.57;2.50;;;;;;;;;;4877844;29;20417;-58
2022/06/09 10:40:49;;;;;;;5.80;2.92;;;;;;;;;;4877516;29;20072;-63
2022/06/09 10:43:27;;;;;;;6.70;2.60;;;;;;;;;;4861629;29;20375;-59
2022/06/09 10:45:57;;;;;;;7.65;2.60;;;;;;;;;;4877646;29;20044;-58
2022/06/09 10:57:10;;;;;;;4.28;2.10;;;;;;;;;;4877154;29;20085;-58
2022/06/09 10:59:42;;;;;;;4.10;2.13;;;;;;;;;;4876347;29;20082;-58
2022/06/09 11:02:14;;;;;;;5.63;2.47;;;;;;;;;;4876557;29;20554;-58
2022/06/09 11:04:40;;;;;;;5.70;2.20;;;;;;;;;;4925292;29;20119;-58
2022/06/09 11:07:25;;;;;;;4.80;2.17;;;;;;;;;;4935247;29;20028;-58
2022/06/09 11:10:06;;;;;;;5.07;2.30;;;;;;;;;;4930479;29;20047;-58
2022/06/09 11:12:41;;;;;;;4.43;2.13;;;;;;;;;;4933981;29;20095;-58
2022/06/09 11:15:16;;;;;;;3.33;2.20;;;;;;;;;;4935638;29;20035;-58
2022/06/09 11:17:49;;;;;;;7.07;2.22;;;;;;;;;;4935183;29;20028;-58
2022/06/09 11:20:33;;;;;;;5.03;2.05;;;;;;;;;;4935645;29;20476;-58
2022/06/09 11:23:02;;;;;;;5.47;2.50;;;;;;;;;;4933942;29;20480;-62
2022/06/09 11:25:38;;;;;;;3.83;2.20;;;;;;;;;;4935514;29;20042;-58
2022/06/09 11:28:23;;;;;;;3.92;2.05;;;;;;;;;;4935552;29;20059;-58
2022/06/09 11:30:49;;;;;;;4.07;2.35;;;;;;;;;;4935403;29;20091;-57
2022/06/09 11:33:15;;;;;;;2.65;1.85;;;;;;;;;;4935562;29;20020;-58
2022/06/09 11:35:44;;;;;;;4.88;1.80;;;;;;;;;;4935304;29;20079;-60
2022/06/09 11:38:15;;;;;;;4.90;2.25;;;;;;;;;;4935007;29;20499;-59
2022/06/09 11:40:44;;;;;;;4.95;2.22;;;;;;;;;;4935247;29;20031;-59
2022/06/09 11:43:13;;;;;;;3.72;1.90;;;;;;;;;;4934839;29;20040;-58
2022/06/09 11:46:00;;;;;;;6.05;2.22;;;;;;;;;;4933901;29;20024;-58
2022/06/09 11:48:33;;;;;;;3.75;1.90;;;;;;;;;;4934913;29;20396;-59
2022/06/09 11:50:59;;;;;;;3.65;2.30;;;;;;;;;;4934977;29;20200;-65
2022/06/09 11:53:28;;;;;;;2.67;1.90;;;;;;;;;;4933450;29;20035;-58
2022/06/09 11:56:14;;;;;;;3.67;1.90;;;;;;;;;;4934931;29;20036;-58
2022/06/09 11:58:41;;;;;;;6.90;2.50;;;;;;;;;;4925256;29;20052;-63
2022/06/09 12:01:17;;;;;;;3.60;2.20;;;;;;;;;;4935112;29;20030;-58
2022/06/09 12:03:43;;;;;;;3.92;2.15;;;;;;;;;;4934741;29;20063;-59
2022/06/09 12:06:26;;;;;;;3.67;2.20;;;;;;;;;;4934875;29;20353;-58
2022/06/09 12:08:52;;;;;;;3.30;2.25;;;;;;;;;;4934920;29;20028;-59
2022/06/09 12:11:20;;;;;;;5.78;2.45;;;;;;;;;;4934881;29;20036;-58
2022/06/09 12:13:47;;;;;;;8.50;2.42;;;;;;;;;;4935059;29;20103;-58
2022/06/09 12:16:28;;;;;;;4.55;2.20;;;;;;;;;;4934881;29;20027;-58
2022/06/09 12:19:15;;;;;;;5.80;2.25;;;;;;;;;;4934621;29;20115;-62
2022/06/09 12:21:44;;;;;;;4.28;2.03;;;;;;;;;;4934424;29;20066;-63
2022/06/09 12:24:19;;;;;;;4.47;2.30;;;;;;;;;;4934390;29;20047;-59
2022/06/09 12:26:48;;;;;;;4.15;1.50;;;;;;;;;;4934559;29;20512;-57
2022/06/09 12:29:33;;;;;;;4.10;1.98;;;;;;;;;;4934242;29;20180;-61
2022/06/09 12:32:05;;;;;;;4.72;2.10;;;;;;;;;;4934463;29;20032;-59
2022/06/09 12:34:31;;;;;;;5.45;2.50;;;;;;;;;;4934082;29;20032;-61
2022/06/09 12:36:58;;;;;;;4.72;2.45;;;;;;;;;;4933884;29;20027;-59
2022/06/09 12:39:26;;;;;;;4.18;2.50;;;;;;;;;;4934251;29;20389;-58
2022/06/09 12:41:56;;;;;;;4.57;2.20;;;;;;;;;;4934346;29;20035;-58
2022/06/09 12:44:24;;;;;;;5.22;2.85;;;;;;;;;;4934560;29;20046;-58
2022/06/09 12:46:57;;;;;;;6.95;2.95;;;;;;;;;;4934396;29;20051;-57
2022/06/09 12:49:22;;;;;;;;;;;;;;;;;;4934591;29;20035;-59
2022/06/09 12:51:49;;;;;;;6.20;2.20;;;;;;;;;;4933867;29;19914;-60
2022/06/09 12:54:21;;;;;;;2.95;2.20;;;;;;;;;;4933767;29;20059;-61
2022/06/09 12:56:56;;;;;;;5.18;2.22;;;;;;;;;;4934311;29;20080;-57
2022/06/09 12:59:33;;;;;;;4.03;2.10;;;;;;;;;;4934167;29;20023;-62
2022/06/09 13:02:00;;;;;;;4.88;2.47;;;;;;;;;;4934014;29;20500;-60
2022/06/09 13:04:27;;;;;;;4.72;2.42;;;;;;;;;;4934050;29;20031;-57
2022/06/09 13:06:54;;;;;;;4.43;2.40;;;;;;;;;;4933789;29;20035;-57
2022/06/09 13:09:37;;;;;;;3.33;2.10;;;;;;;;;;4934122;29;20460;-57
2022/06/09 13:14:51;;;;;;;4.75;2.63;;;;;;;;;;4933731;29;20034;-57
2022/06/09 13:17:19;;;;;;;4.10;2.40;;;;;;;;;;4933515;29;20028;-62
2022/06/09 13:19:50;;;;;;;5.80;2.30;;;;;;;;;;4934191;29;20043;-57
2022/06/09 13:22:17;;;;;;;4.10;2.30;;;;;;;;;;4933402;29;20377;-57
2022/06/09 13:24:44;;;;;;;3.80;2.63;;;;;;;;;;4933231;29;20043;-57
2022/06/09 13:27:15;;;;;;;4.05;2.00;;;;;;;;;;4933485;29;20032;-60
2022/06/09 13:29:57;;;;;;;3.83;2.08;;;;;;;;;;4933833;29;20023;-62
2022/06/09 13:32:23;;;;;;;3.85;2.05;;;;;;;;;;4933857;29;20027;-62
2022/06/09 13:34:49;;;;;;;6.18;2.40;;;;;;;;;;4933660;29;20035;-57
2022/06/09 13:37:20;;;;;;;2.67;2.00;;;;;;;;;;4933582;29;20492;-57
2022/06/09 13:39:49;;;;;;;4.85;2.03;;;;;;;;;;4933838;29;20032;-57
2022/06/09 13:42:21;;;;;;;6.45;2.22;;;;;;;;;;4933640;29;20119;-57
2022/06/09 13:44:55;;;;;;;3.15;2.20;;;;;;;;;;4933467;29;20034;-57
2022/06/09 13:47:25;;;;;;;5.38;2.28;;;;;;;;;;4935490;29;20141;-58
2022/06/09 13:50:10;;;;;;;3.85;2.00;;;;;;;;;;4937577;29;20030;-57
2022/06/09 13:52:38;;;;;;;4.15;2.03;;;;;;;;;;4937107;29;20028;-57
2022/06/09 13:55:11;;;;;;;4.38;2.10;;;;;;;;;;4937330;29;20092;-58
2022/06/09 13:57:39;;;;;;;5.38;1.90;;;;;;;;;;4937182;29;20473;-57
2022/06/09 14:00:10;;;;;;;4.20;1.90;;;;;;;;;;4937172;29;20083;-61
2022/06/09 14:02:47;;;;;;;3.50;2.10;;;;;;;;;;4936933;29;20047;-57
2022/06/09 14:05:14;;;;;;;5.57;1.95;;;;;;;;;;4937062;29;20610;-62
2022/06/09 14:07:40;;;;;;;4.68;2.30;;;;;;;;;;4936396;29;20534;-62
2022/06/09 14:10:08;;;;;;;5.13;2.17;;;;;;;;;;4937028;29;20552;-57
2022/06/09 14:12:34;;;;;;;4.50;2.17;;;;;;;;;;4936819;29;20038;-57
2022/06/09 14:15:01;;;;;;;5.68;2.10;;;;;;;;;;4936733;29;20099;-57
2022/06/09 14:17:28;;;;;;;6.32;2.10;;;;;;;;;;4934769;29;20051;-57
2022/06/09 14:19:54;;;;;;;3.83;1.90;;;;;;;;;;4936565;29;20028;-59
2022/06/09 14:22:20;;;;;;;3.20;1.95;;;;;;;;;;4936446;29;20079;-58
2022/06/09 14:24:47;;;;;;;5.03;2.15;;;;;;;;;;4936497;29;20476;-58
2022/06/09 14:27:13;;;;;;;4.03;2.17;;;;;;;;;;4936444;29;20036;-58
2022/06/09 14:29:39;;;;;;;12.95;2.80;;;;;;;;;;4936681;29;20028;-57
2022/06/09 14:32:13;;;;;;;3.67;2.20;;;;;;;;;;4936764;29;20395;-57
2022/06/09 14:34:39;;;;;;;4.82;2.00;;;;;;;;;;4936783;29;20443;-59
2022/06/09 14:37:05;;;;;;;3.67;2.08;;;;;;;;;;4936165;29;20502;-57
2022/06/09 14:39:31;;;;;;;8.18;2.30;;;;;;;;;;4936174;29;20472;-58
2022/06/09 14:41:57;;;;;;;3.60;2.13;;;;;;;;;;4936120;29;20023;-58
2022/06/09 14:44:24;;;;;;;62.85;4.35;;;;;;;;;;4936377;29;20039;-58
2022/06/09 14:46:50;;;;;;;14.75;2.53;;;;;;;;;;4936350;29;20024;-57
2022/06/09 14:49:20;;;;;;;3.83;2.03;;;;;;;;;;4936388;29;20063;-62
2022/06/09 14:51:46;;;;;;;3.95;1.95;;;;;;;;;;4936179;29;20487;-57
2022/06/09 14:54:13;;;;;;;10.90;2.17;;;;;;;;;;4935913;29;20035;-57
2022/06/09 14:56:41;;;;;;;60.22;4.25;;;;;;;;;;4936082;29;20031;-61
2022/06/09 14:59:08;;;;;;;5.93;1.98;;;;;;;;;;4935205;29;20099;-58
2022/06/09 15:01:34;;;;;;;5.75;1.80;;;;;;;;;;4935820;29;20042;-60
2022/06/09 15:04:00;;;;;;;5.10;2.10;;;;;;;;;;4935575;29;20035;-58
2022/06/09 15:06:27;;;;;;;4.28;1.80;;;;;;;;;;4935529;29;20400;-57
2022/06/09 15:08:54;;;;;;;3.33;1.67;;;;;;;;;;4935445;29;20031;-58
2022/06/09 15:11:20;;;;;;;6.47;1.95;;;;;;;;;;4935660;29;20028;-57
2022/06/09 15:13:47;;;;;;;4.95;2.00;;;;;;;;;;4934811;29;20024;-58
2022/06/09 15:16:13;;;;;;;3.65;1.70;;;;;;;;;;4935488;29;20249;-57
2022/06/09 15:18:42;;;;;;;3.63;2.38;;;;;;;;;;4935764;29;20060;-57
2022/06/09 15:21:08;;;;;;;4.50;1.70;;;;;;;;;;4935625;29;20047;-58
2022/06/09 15:23:34;;;;;;;5.57;2.08;;;;;;;;;;4935198;29;20131;-58
2022/06/09 15:26:00;;;;;;;5.60;1.90;;;;;;;;;;4935439;29;20396;-58